createdAt,value
2022-12-28T00:00:21.088Z,9.63
2022-12-28T00:01:41.767Z,10.38
2022-12-28T00:03:03.808Z,9.70
2022-12-28T00:05:44.732Z,9.05
2022-12-28T00:07:05.791Z,10.38
2022-12-28T00:08:27.577Z,10.05
2022-12-28T00:09:47.782Z,9.82
2022-12-28T00:11:20.583Z,10.25
2022-12-28T00:12:49.137Z,10.18
2022-12-28T00:14:09.755Z,11.13
2022-12-28T00:15:30.429Z,10.07
2022-12-28T00:16:51.172Z,10.57
2022-12-28T00:18:11.895Z,9.98
2022-12-28T00:19:32.803Z,10.02
2022-12-28T00:20:57.633Z,10.98
2022-12-28T00:22:18.374Z,10.40
2022-12-28T00:23:40.376Z,10.48
2022-12-28T00:25:00.877Z,10.27
2022-12-28T00:26:21.769Z,11.18
2022-12-28T00:27:42.462Z,9.95
2022-12-28T00:29:05.728Z,10.52
2022-12-28T00:30:26.667Z,9.50
2022-12-28T00:31:47.463Z,11.00
2022-12-28T00:33:08.256Z,10.70
2022-12-28T00:34:28.730Z,10.80
2022-12-28T00:35:53.517Z,11.77
2022-12-28T00:37:14.020Z,11.48
2022-12-28T00:38:35.996Z,11.32
2022-12-28T00:41:18.041Z,11.85
2022-12-28T00:42:38.362Z,11.65
2022-12-28T00:43:59.066Z,12.00
2022-12-28T00:45:19.764Z,11.32
2022-12-28T00:46:40.603Z,12.17
2022-12-28T00:48:00.964Z,12.10
2022-12-28T00:49:21.730Z,12.27
2022-12-28T00:50:43.130Z,11.38
2022-12-28T00:53:24.508Z,11.75
2022-12-28T00:54:45.473Z,11.90
2022-12-28T00:56:08.993Z,11.35
2022-12-28T00:57:30.849Z,12.77
2022-12-28T00:58:55.932Z,12.02
2022-12-28T01:00:16.906Z,11.23
2022-12-28T01:01:38.255Z,11.50
2022-12-28T01:02:59.213Z,12.07
2022-12-28T01:04:20.127Z,11.40
2022-12-28T01:05:41.187Z,11.63
2022-12-28T01:07:01.900Z,11.98
2022-12-28T01:08:22.513Z,12.13
2022-12-28T01:09:43.317Z,11.52
2022-12-28T01:11:08.703Z,11.75
2022-12-28T01:12:31.940Z,12.23
2022-12-28T01:13:58.420Z,10.18
2022-12-28T01:15:19.366Z,11.15
2022-12-28T01:16:40.107Z,9.93
2022-12-28T01:18:01.845Z,11.63
2022-12-28T01:19:24.191Z,10.63
2022-12-28T01:20:44.502Z,10.70
2022-12-28T01:22:05.305Z,10.63
2022-12-28T01:23:26.025Z,10.55
2022-12-28T01:24:46.718Z,10.60
2022-12-28T01:26:08.951Z,10.68
2022-12-28T01:27:29.598Z,10.77
2022-12-28T01:28:50.363Z,10.63
2022-12-28T01:30:13.667Z,10.18
2022-12-28T01:31:34.309Z,10.40
2022-12-28T01:32:55.128Z,10.50
2022-12-28T01:34:15.850Z,10.75
2022-12-28T01:35:36.894Z,11.15
2022-12-28T01:36:57.429Z,10.35
2022-12-28T01:38:17.936Z,11.02
2022-12-28T01:39:38.803Z,10.77
2022-12-28T01:41:00.163Z,11.07
2022-12-28T01:42:22.024Z,10.33
2022-12-28T01:43:44.528Z,10.85
2022-12-28T01:45:16.782Z,9.77
2022-12-28T01:46:39.949Z,9.77
2022-12-28T01:48:00.340Z,10.65
2022-12-28T01:49:24.553Z,10.32
2022-12-28T01:50:45.186Z,10.43
2022-12-28T01:52:08.489Z,10.73
2022-12-28T01:53:29.723Z,10.52
2022-12-28T01:54:52.092Z,9.73
2022-12-28T01:56:13.057Z,10.60
2022-12-28T01:57:39.767Z,10.88
2022-12-28T01:59:00.750Z,9.52
2022-12-28T02:00:21.674Z,10.88
2022-12-28T02:01:42.079Z,9.85
2022-12-28T02:03:05.983Z,10.93
2022-12-28T02:04:26.659Z,10.45
2022-12-28T02:05:49.915Z,11.02
2022-12-28T02:07:11.199Z,11.20
2022-12-28T02:10:41.064Z,9.65
2022-12-28T02:11:34.743Z,10.18
2022-12-28T02:12:57.214Z,11.23
2022-12-28T02:14:18.632Z,8.95
2022-12-28T02:15:39.330Z,9.60
2022-12-28T02:17:00.228Z,9.98
2022-12-28T02:18:22.097Z,9.65
2022-12-28T02:19:45.235Z,9.95
2022-12-28T02:21:17.327Z,10.02
2022-12-28T02:23:12.874Z,9.57
2022-12-28T02:25:12.082Z,10.13
2022-12-28T02:26:51.046Z,9.18
2022-12-28T02:28:26.271Z,9.30
2022-12-28T02:30:01.885Z,9.60
2022-12-28T02:31:29.386Z,9.35
2022-12-28T02:32:58.878Z,9.93
2022-12-28T02:34:24.427Z,8.57
2022-12-28T02:35:48.277Z,9.90
2022-12-28T02:37:12.096Z,9.15
2022-12-28T02:38:37.090Z,8.70
2022-12-28T02:40:01.790Z,9.52
2022-12-28T02:41:25.043Z,9.80
2022-12-28T02:42:46.267Z,9.73
2022-12-28T02:44:07.391Z,8.95
2022-12-28T02:45:36.823Z,9.10
2022-12-28T02:46:57.352Z,9.25
2022-12-28T02:48:17.941Z,9.30
2022-12-28T02:49:38.512Z,9.98
2022-12-28T02:51:14.907Z,8.40
2022-12-28T02:52:55.239Z,8.98
2022-12-28T02:54:32.031Z,9.23
2022-12-28T02:56:03.301Z,8.65
2022-12-28T02:57:36.487Z,8.35
2022-12-28T02:59:19.229Z,8.90
2022-12-28T03:00:53.089Z,8.82
2022-12-28T03:02:29.431Z,8.57
2022-12-28T03:03:58.340Z,7.88
2022-12-28T03:05:24.347Z,7.43
2022-12-28T03:06:49.230Z,7.88
2022-12-28T03:08:12.214Z,7.25
2022-12-28T03:09:37.909Z,8.85
2022-12-28T03:11:03.116Z,7.28
2022-12-28T03:12:27.403Z,8.45
2022-12-28T03:13:52.697Z,7.43
2022-12-28T03:15:15.550Z,8.15
2022-12-28T03:16:38.807Z,7.28
2022-12-28T03:18:03.128Z,7.60
2022-12-28T03:19:27.179Z,7.90
2022-12-28T03:20:48.025Z,7.88
2022-12-28T03:22:09.819Z,7.50
2022-12-28T03:23:31.447Z,7.30
2022-12-28T03:24:52.520Z,7.47
2022-12-28T03:26:13.612Z,7.82
2022-12-28T03:27:34.700Z,7.07
2022-12-28T03:28:56.084Z,7.75
2022-12-28T03:31:40.644Z,7.80
2022-12-28T03:33:01.189Z,7.35
2022-12-28T03:34:21.903Z,7.65
2022-12-28T03:35:46.054Z,7.47
2022-12-28T03:37:12.128Z,7.80
2022-12-28T03:38:39.938Z,7.15
2022-12-28T03:40:08.287Z,7.13
2022-12-28T03:41:31.037Z,6.25
2022-12-28T03:42:54.800Z,7.15
2022-12-28T03:44:21.008Z,6.65
2022-12-28T03:45:47.794Z,6.40
2022-12-28T03:47:11.096Z,6.45
2022-12-28T03:48:32.531Z,6.10
2022-12-28T03:49:53.259Z,5.65
2022-12-28T03:51:15.936Z,6.13
2022-12-28T03:52:36.646Z,6.00
2022-12-28T03:53:57.408Z,5.63
2022-12-28T03:55:18.579Z,6.40
2022-12-28T03:56:46.057Z,5.70
2022-12-28T03:58:06.761Z,5.88
2022-12-28T03:59:27.373Z,5.53
2022-12-28T04:00:47.985Z,6.10
2022-12-28T04:02:10.025Z,5.65
2022-12-28T04:03:30.629Z,5.45
2022-12-28T04:04:51.290Z,5.75
2022-12-28T04:06:12.954Z,5.40
2022-12-28T04:07:33.561Z,5.90
2022-12-28T04:08:54.008Z,6.22
2022-12-28T04:10:14.661Z,5.50
2022-12-28T04:11:35.218Z,5.60
2022-12-28T04:12:56.079Z,5.03
2022-12-28T04:14:16.834Z,5.45
2022-12-28T04:15:37.434Z,5.78
2022-12-28T04:16:57.937Z,5.83
2022-12-28T04:18:20.062Z,5.60
2022-12-28T04:19:40.551Z,6.05
2022-12-28T04:21:01.634Z,5.55
2022-12-28T04:22:22.020Z,5.63
2022-12-28T04:23:42.638Z,6.07
2022-12-28T04:25:03.846Z,6.13
2022-12-28T04:26:24.293Z,6.10
2022-12-28T04:27:44.839Z,6.40
2022-12-28T04:29:05.461Z,5.95
2022-12-28T04:30:26.039Z,5.63
2022-12-28T04:31:46.760Z,6.00
2022-12-28T04:33:07.139Z,6.55
2022-12-28T04:34:29.422Z,6.45
2022-12-28T04:35:50.314Z,5.68
2022-12-28T04:37:10.882Z,6.27
2022-12-28T04:38:31.513Z,6.50
2022-12-28T04:39:55.223Z,6.18
2022-12-28T04:41:17.050Z,6.43
2022-12-28T04:42:37.527Z,5.60
2022-12-28T04:43:58.461Z,5.68
2022-12-28T04:45:22.178Z,6.28
2022-12-28T04:46:42.994Z,6.13
2022-12-28T04:48:03.732Z,5.30
2022-12-28T04:49:23.967Z,4.63
2022-12-28T04:50:45.993Z,6.03
2022-12-28T04:52:06.630Z,4.85
2022-12-28T04:53:27.533Z,5.45
2022-12-28T04:54:47.920Z,5.65
2022-12-28T04:56:10.241Z,5.70
2022-12-28T04:57:30.949Z,5.90
2022-12-28T04:58:54.236Z,6.05
2022-12-28T05:00:15.377Z,5.38
2022-12-28T05:01:36.027Z,5.38
2022-12-28T05:02:58.903Z,5.72
2022-12-28T05:04:19.403Z,5.40
2022-12-28T05:05:39.952Z,6.10
2022-12-28T05:07:01.984Z,5.03
2022-12-28T05:08:22.417Z,5.82
2022-12-28T05:09:43.311Z,5.15
2022-12-28T05:11:05.116Z,5.20
2022-12-28T05:12:25.933Z,5.85
2022-12-28T05:13:47.036Z,6.05
2022-12-28T05:15:08.248Z,6.60
2022-12-28T05:17:49.494Z,6.47
2022-12-28T05:19:09.902Z,6.10
2022-12-28T05:20:30.388Z,6.28
2022-12-28T05:21:50.866Z,5.82
2022-12-28T05:23:12.933Z,5.93
2022-12-28T05:24:33.470Z,5.97
2022-12-28T05:25:54.135Z,6.40
2022-12-28T05:27:14.832Z,5.85
2022-12-28T05:28:35.620Z,5.90
2022-12-28T05:29:56.048Z,5.50
2022-12-28T05:31:17.913Z,4.78
2022-12-28T05:32:38.389Z,5.82
2022-12-28T05:33:59.112Z,5.10
2022-12-28T05:35:19.667Z,5.53
2022-12-28T05:36:40.189Z,5.75
2022-12-28T05:38:00.944Z,6.28
2022-12-28T05:39:23.039Z,5.50
2022-12-28T05:40:43.587Z,5.07
2022-12-28T05:42:04.668Z,5.38
2022-12-28T05:43:25.116Z,5.32
2022-12-28T05:44:45.982Z,5.18
2022-12-28T05:46:08.974Z,5.75
2022-12-28T05:47:29.336Z,6.75
2022-12-28T05:48:49.583Z,5.45
2022-12-28T05:50:10.216Z,5.78
2022-12-28T05:51:32.413Z,4.82
2022-12-28T05:52:52.810Z,5.35
2022-12-28T05:54:13.549Z,6.10
2022-12-28T05:55:35.386Z,5.38
2022-12-28T05:56:56.060Z,5.10
2022-12-28T05:58:16.873Z,5.95
2022-12-28T05:59:37.440Z,5.28
2022-12-28T06:01:05.710Z,5.68
2022-12-28T06:02:26.416Z,5.15
2022-12-28T06:03:48.136Z,5.37
2022-12-28T06:05:09.195Z,5.53
2022-12-28T06:06:30.665Z,5.47
2022-12-28T06:07:52.039Z,5.95
2022-12-28T06:09:13.111Z,5.75
2022-12-28T06:10:34.873Z,5.97
2022-12-28T06:11:55.395Z,6.15
2022-12-28T06:13:15.987Z,5.90
2022-12-28T06:14:36.603Z,6.65
2022-12-28T06:15:57.170Z,6.63
2022-12-28T06:17:18.183Z,6.07
2022-12-28T06:18:38.791Z,5.75
2022-12-28T06:19:59.795Z,6.38
2022-12-28T06:21:22.215Z,6.38
2022-12-28T06:22:42.785Z,6.10
2022-12-28T06:24:04.918Z,6.60
2022-12-28T06:25:25.623Z,6.97
2022-12-28T06:26:47.714Z,5.68
2022-12-28T06:28:08.430Z,6.85
2022-12-28T06:29:29.031Z,6.43
2022-12-28T06:30:52.776Z,5.93
2022-12-28T06:32:13.937Z,6.80
2022-12-28T06:33:34.844Z,6.83
2022-12-28T06:34:55.496Z,7.15
2022-12-28T06:36:20.362Z,6.15
2022-12-28T06:37:41.140Z,7.05
2022-12-28T06:39:02.746Z,7.05
2022-12-28T06:42:01.639Z,6.43
2022-12-28T06:43:22.532Z,6.90
2022-12-28T06:44:44.866Z,7.82
2022-12-28T06:46:06.015Z,7.78
2022-12-28T06:47:26.647Z,8.20
2022-12-28T06:48:47.730Z,8.95
2022-12-28T06:50:09.260Z,8.98
2022-12-28T06:51:31.391Z,9.25
2022-12-28T06:52:52.034Z,9.68
2022-12-28T06:54:12.564Z,10.25
2022-12-28T06:55:33.117Z,10.15
2022-12-28T06:56:53.822Z,10.00
2022-12-28T06:58:15.966Z,10.17
2022-12-28T06:59:36.401Z,9.32
2022-12-28T07:00:57.160Z,9.55
2022-12-28T07:03:39.241Z,9.13
2022-12-28T07:04:59.819Z,9.48
2022-12-28T07:06:21.962Z,8.50
2022-12-28T07:07:45.502Z,8.52
2022-12-28T07:09:08.173Z,7.07
2022-12-28T07:10:28.738Z,6.88
2022-12-28T07:11:50.288Z,7.38
2022-12-28T07:13:10.413Z,7.40
2022-12-28T07:14:32.508Z,7.30
2022-12-28T07:15:53.320Z,8.80
2022-12-28T07:17:13.873Z,7.35
2022-12-28T07:18:34.552Z,7.80
2022-12-28T07:19:55.246Z,6.10
2022-12-28T07:21:17.636Z,7.07
2022-12-28T07:22:38.216Z,7.10
2022-12-28T07:23:58.994Z,7.28
2022-12-28T07:25:19.829Z,7.07
2022-12-28T07:26:40.646Z,7.28
2022-12-28T07:28:00.960Z,6.68
2022-12-28T07:29:21.313Z,7.28
2022-12-28T07:30:43.528Z,7.25
2022-12-28T07:32:04.616Z,6.82
2022-12-28T07:33:24.985Z,7.80
2022-12-28T07:34:45.214Z,8.35
2022-12-28T07:36:07.517Z,8.98
2022-12-28T07:37:28.089Z,8.18
2022-12-28T07:38:49.023Z,8.13
2022-12-28T07:40:10.942Z,8.27
2022-12-28T07:41:33.405Z,8.45
2022-12-28T07:42:53.967Z,8.30
2022-12-28T07:44:14.442Z,9.02
2022-12-28T07:45:35.079Z,8.10
2022-12-28T07:46:57.064Z,8.40
2022-12-28T07:48:17.756Z,9.27
2022-12-28T07:49:38.285Z,9.23
2022-12-28T07:51:05.714Z,9.23
2022-12-28T07:52:26.224Z,8.70
2022-12-28T07:53:48.785Z,8.88
2022-12-28T07:55:09.533Z,9.07
2022-12-28T07:57:51.875Z,9.50
2022-12-28T07:59:12.531Z,9.32
2022-12-28T08:00:33.168Z,8.77
2022-12-28T08:01:54.019Z,9.10
2022-12-28T08:03:16.196Z,9.30
2022-12-28T08:04:36.675Z,9.15
2022-12-28T08:06:03.067Z,8.23
2022-12-28T08:07:23.472Z,8.65
2022-12-28T08:08:45.744Z,7.60
2022-12-28T08:10:07.163Z,8.80
2022-12-28T08:11:29.582Z,9.10
2022-12-28T08:12:49.879Z,9.05
2022-12-28T08:14:10.876Z,9.27
2022-12-28T08:15:31.429Z,9.95
2022-12-28T08:16:52.175Z,10.05
2022-12-28T08:18:13.003Z,9.52
2022-12-28T08:22:19.965Z,9.02
2022-12-28T08:23:40.852Z,9.43
2022-12-28T08:25:01.602Z,8.80
2022-12-28T08:26:22.965Z,8.77
2022-12-28T08:27:43.584Z,9.25
2022-12-28T08:29:06.890Z,9.53
2022-12-28T08:30:27.235Z,9.07
2022-12-28T08:31:48.394Z,9.30
2022-12-28T08:33:08.750Z,9.18
2022-12-28T08:34:29.294Z,9.17
2022-12-28T08:35:51.262Z,8.50
2022-12-28T08:37:11.687Z,9.30
2022-12-28T08:38:32.985Z,8.80
2022-12-28T08:39:53.553Z,9.25
2022-12-28T08:41:15.199Z,8.52
2022-12-28T08:43:56.439Z,8.13
2022-12-28T08:45:17.068Z,7.97
2022-12-28T08:46:37.546Z,8.45
2022-12-28T08:47:57.864Z,7.00
2022-12-28T08:49:18.449Z,7.65
2022-12-28T08:50:39.125Z,7.97
2022-12-28T08:52:01.076Z,6.93
2022-12-28T08:53:22.209Z,6.82
2022-12-28T08:54:42.835Z,7.18
2022-12-28T08:56:06.757Z,6.75
2022-12-28T08:57:27.703Z,6.93
2022-12-28T08:58:49.484Z,6.90
2022-12-28T09:00:11.367Z,7.13
2022-12-28T09:01:40.896Z,6.55
2022-12-28T09:03:03.409Z,6.30
2022-12-28T09:04:23.988Z,6.80
2022-12-28T09:05:44.181Z,6.57
2022-12-28T09:07:06.059Z,6.38
2022-12-28T09:08:26.576Z,6.50
2022-12-28T09:09:47.158Z,6.03
2022-12-28T09:11:09.862Z,6.07
2022-12-28T09:12:30.401Z,6.25
2022-12-28T09:13:50.945Z,5.43
2022-12-28T09:15:11.903Z,5.60
2022-12-28T09:16:32.993Z,5.85
2022-12-28T09:17:53.231Z,6.03
2022-12-28T09:19:15.215Z,5.25
2022-12-28T09:20:35.898Z,6.03
2022-12-28T09:21:56.671Z,5.47
2022-12-28T09:23:18.489Z,7.05
2022-12-28T09:24:39.139Z,7.30
2022-12-28T09:26:04.581Z,7.60
2022-12-28T09:27:25.252Z,7.60
2022-12-28T09:28:46.453Z,7.03
2022-12-28T09:30:08.034Z,6.82
2022-12-28T09:32:49.823Z,5.97
2022-12-28T09:35:52.111Z,4.72
2022-12-28T09:37:12.869Z,4.93
2022-12-28T09:38:34.747Z,5.20
2022-12-28T09:40:01.021Z,4.70
2022-12-28T09:41:26.603Z,4.82
2022-12-28T09:42:47.133Z,5.40
2022-12-28T09:44:19.973Z,4.50
2022-12-28T09:45:41.377Z,4.35
2022-12-28T09:47:05.070Z,4.65
2022-12-28T09:48:25.839Z,4.88
2022-12-28T09:49:55.532Z,4.13
2022-12-28T09:51:16.417Z,4.05
2022-12-28T09:52:40.540Z,3.88
2022-12-28T09:54:05.543Z,3.95
2022-12-28T09:55:26.670Z,4.40
2022-12-28T09:56:48.108Z,3.85
2022-12-28T09:59:34.631Z,4.40
2022-12-28T10:00:57.791Z,3.90
2022-12-28T10:02:22.810Z,3.40
2022-12-28T10:03:44.720Z,3.80
2022-12-28T10:05:05.944Z,4.00
2022-12-28T10:06:28.675Z,3.50
2022-12-28T10:07:49.695Z,3.67
2022-12-28T10:09:16.286Z,4.07
2022-12-28T10:10:36.958Z,4.35
2022-12-28T10:11:58.514Z,4.30
2022-12-28T10:13:53.102Z,4.13
2022-12-28T10:15:06.176Z,4.05
2022-12-28T10:16:30.007Z,4.53
2022-12-28T10:17:50.674Z,5.25
2022-12-28T10:19:11.969Z,4.38
2022-12-28T10:20:32.812Z,4.25
2022-12-28T10:21:58.510Z,4.50
2022-12-28T10:23:21.526Z,4.45
2022-12-28T10:24:43.851Z,4.93
2022-12-28T10:26:05.402Z,5.20
2022-12-28T10:27:31.299Z,5.25
2022-12-28T10:28:53.180Z,4.72
2022-12-28T10:30:18.671Z,5.10
2022-12-28T10:31:40.556Z,4.85
2022-12-28T10:33:03.601Z,4.28
2022-12-28T10:34:25.264Z,4.30
2022-12-28T10:35:51.035Z,4.47
2022-12-28T10:37:15.607Z,4.15
2022-12-28T10:38:37.057Z,5.18
2022-12-28T10:40:00.988Z,4.47
2022-12-28T10:41:22.059Z,4.63
2022-12-28T10:42:43.793Z,4.60
2022-12-28T10:45:58.318Z,3.80
2022-12-28T10:47:28.456Z,3.90
2022-12-28T10:48:52.882Z,4.35
2022-12-28T10:50:38.210Z,4.57
2022-12-28T10:52:06.061Z,4.75
2022-12-28T10:53:30.688Z,4.47
2022-12-28T10:55:07.587Z,4.75
2022-12-28T10:56:32.061Z,4.53
2022-12-28T10:58:27.399Z,4.50
2022-12-28T10:59:33.319Z,4.72
2022-12-28T11:00:56.426Z,5.97
2022-12-28T11:02:27.455Z,5.22
2022-12-28T11:04:00.553Z,5.43
2022-12-28T11:05:23.199Z,5.18
2022-12-28T11:06:52.044Z,5.30
2022-12-28T11:08:13.822Z,5.13
2022-12-28T11:09:35.303Z,5.40
2022-12-28T11:10:57.162Z,4.50
2022-12-28T11:12:25.139Z,5.50
2022-12-28T11:13:47.217Z,4.72
2022-12-28T11:15:09.570Z,4.97
2022-12-28T11:16:31.603Z,4.25
2022-12-28T11:17:56.865Z,4.72
2022-12-28T11:19:17.815Z,4.80
2022-12-28T11:20:39.924Z,5.03
2022-12-28T11:22:00.532Z,4.45
2022-12-28T11:23:23.158Z,4.35
2022-12-28T11:24:44.206Z,4.63
2022-12-28T11:26:04.951Z,5.70
2022-12-28T11:27:27.338Z,5.07
2022-12-28T11:28:50.579Z,5.05
2022-12-28T11:30:17.484Z,4.53
2022-12-28T11:31:42.893Z,4.90
2022-12-28T11:33:04.082Z,4.60
2022-12-28T11:34:27.554Z,5.78
2022-12-28T11:35:48.811Z,5.03
2022-12-28T11:37:13.647Z,4.72
2022-12-28T11:38:37.602Z,6.13
2022-12-28T11:39:58.369Z,4.55
2022-12-28T11:41:47.024Z,5.18
2022-12-28T11:43:52.894Z,5.35
2022-12-28T11:45:15.771Z,4.57
2022-12-28T11:46:41.365Z,5.63
2022-12-28T11:48:35.063Z,5.70
2022-12-28T11:49:55.825Z,5.13
2022-12-28T11:51:18.333Z,4.60
2022-12-28T11:52:46.337Z,5.47
2022-12-28T11:54:37.474Z,5.43
2022-12-28T11:56:06.095Z,4.68
2022-12-28T11:57:36.624Z,5.60
2022-12-28T11:59:23.346Z,4.78
2022-12-28T12:00:48.248Z,4.00
2022-12-28T12:02:39.040Z,4.40
2022-12-28T12:04:18.458Z,4.32
2022-12-28T12:05:51.539Z,4.70
2022-12-28T12:07:40.452Z,4.90
2022-12-28T12:09:01.143Z,4.32
2022-12-28T12:10:30.000Z,4.05
2022-12-28T12:11:52.108Z,4.20
2022-12-28T12:13:41.224Z,5.15
2022-12-28T12:15:11.080Z,4.70
2022-12-28T12:16:39.559Z,5.55
2022-12-28T12:18:02.742Z,5.30
2022-12-28T12:19:25.630Z,4.68
2022-12-28T12:20:54.811Z,5.18
2022-12-28T12:22:18.281Z,5.50
2022-12-28T12:23:41.479Z,5.13
2022-12-28T12:25:04.728Z,5.53
2022-12-28T12:26:30.029Z,5.45
2022-12-28T12:27:54.105Z,5.53
2022-12-28T12:29:16.894Z,5.63
2022-12-28T12:30:38.672Z,6.10
2022-12-28T12:32:02.128Z,4.95
2022-12-28T12:33:25.829Z,5.38
2022-12-28T12:34:49.240Z,6.13
2022-12-28T12:36:22.298Z,5.38
2022-12-28T12:37:45.799Z,5.57
2022-12-28T12:39:25.922Z,5.45
2022-12-28T12:40:56.603Z,6.10
2022-12-28T12:42:22.769Z,5.50
2022-12-28T12:43:54.237Z,6.70
2022-12-28T12:45:21.939Z,5.35
2022-12-28T12:47:20.471Z,5.60
2022-12-28T12:48:53.629Z,5.75
2022-12-28T12:50:35.492Z,5.22
2022-12-28T12:52:00.587Z,5.53
2022-12-28T12:53:36.065Z,4.97
2022-12-28T12:55:10.524Z,4.80
2022-12-28T12:56:39.641Z,4.90
2022-12-28T12:58:02.591Z,5.18
2022-12-28T12:59:36.932Z,5.15
2022-12-28T13:01:13.921Z,4.70
2022-12-28T13:03:04.460Z,5.18
2022-12-28T13:04:28.827Z,5.13
2022-12-28T13:05:52.528Z,4.93
2022-12-28T13:07:17.997Z,5.43
2022-12-28T13:08:42.600Z,5.70
2022-12-28T13:10:04.919Z,5.20
2022-12-28T13:11:25.479Z,4.90
2022-12-28T13:12:46.435Z,4.15
2022-12-28T13:14:06.860Z,4.55
2022-12-28T13:15:28.081Z,4.57
2022-12-28T13:16:50.518Z,4.40
2022-12-28T13:18:43.928Z,4.63
2022-12-28T13:20:10.805Z,5.00
2022-12-28T13:21:41.627Z,4.57
2022-12-28T13:23:02.357Z,4.53
2022-12-28T13:24:25.397Z,6.30
2022-12-28T13:25:48.852Z,4.65
2022-12-28T13:27:18.960Z,4.90
2022-12-28T13:28:47.759Z,4.65
2022-12-28T13:30:18.075Z,4.40
2022-12-28T13:31:39.958Z,3.88
2022-12-28T13:33:01.768Z,4.85
2022-12-28T13:34:23.666Z,3.92
2022-12-28T13:35:45.857Z,5.00
2022-12-28T13:37:14.283Z,4.40
2022-12-28T13:38:34.816Z,5.32
2022-12-28T13:40:09.569Z,4.10
2022-12-28T13:41:32.386Z,4.18
2022-12-28T13:42:59.949Z,4.20
2022-12-28T13:44:30.629Z,4.43
2022-12-28T13:45:52.463Z,3.60
2022-12-28T13:47:20.042Z,3.88
2022-12-28T13:48:44.129Z,4.18
2022-12-28T13:50:07.865Z,4.40
2022-12-28T13:51:29.946Z,4.50
2022-12-28T13:52:53.960Z,4.63
2022-12-28T13:54:14.784Z,4.22
2022-12-28T13:55:39.671Z,4.80
2022-12-28T13:57:20.866Z,4.88
2022-12-28T13:58:44.803Z,4.13
2022-12-28T14:00:07.177Z,3.90
2022-12-28T14:01:30.690Z,4.32
2022-12-28T14:02:54.440Z,4.10
2022-12-28T14:05:59.257Z,4.35
2022-12-28T14:07:23.849Z,4.72
2022-12-28T14:08:44.882Z,4.03
2022-12-28T14:10:06.439Z,4.40
2022-12-28T14:11:28.037Z,4.57
2022-12-28T14:12:49.096Z,4.00
2022-12-28T14:14:10.492Z,3.63
2022-12-28T14:15:37.268Z,4.28
2022-12-28T14:17:02.318Z,43.38
2022-12-28T14:18:22.823Z,10.02
2022-12-28T14:19:43.684Z,4.22
2022-12-28T14:21:04.484Z,4.23
2022-12-28T14:22:28.911Z,4.47
2022-12-28T14:23:49.798Z,4.20
2022-12-28T14:25:12.263Z,4.00
2022-12-28T14:26:32.926Z,3.65
2022-12-28T14:27:57.761Z,4.27
2022-12-28T14:29:23.172Z,3.38
2022-12-28T14:30:43.972Z,3.53
2022-12-28T14:32:06.785Z,4.30
2022-12-28T14:33:30.008Z,3.53
2022-12-28T14:36:38.225Z,4.95
2022-12-28T14:38:01.045Z,3.58
2022-12-28T14:39:29.013Z,4.25
2022-12-28T14:40:53.749Z,3.72
2022-12-28T14:42:20.094Z,4.40
2022-12-28T14:43:40.887Z,4.03
2022-12-28T14:45:23.107Z,4.63
2022-12-28T14:48:22.927Z,4.57
2022-12-28T14:49:43.815Z,3.75
2022-12-28T14:51:06.517Z,4.18
2022-12-28T14:52:35.279Z,3.88
2022-12-28T14:54:16.624Z,3.58
2022-12-28T14:55:39.727Z,3.83
2022-12-28T14:57:02.559Z,4.40
2022-12-28T14:58:25.692Z,4.30
2022-12-28T14:59:50.819Z,3.85
2022-12-28T15:01:11.564Z,3.78
2022-12-28T15:02:39.422Z,3.88
2022-12-28T15:04:02.319Z,4.20
2022-12-28T15:05:49.156Z,4.38
2022-12-28T15:07:10.461Z,4.60
2022-12-28T15:08:30.682Z,3.80
2022-12-28T15:09:53.113Z,3.28
2022-12-28T15:11:13.730Z,4.25
2022-12-28T15:12:34.504Z,3.65
2022-12-28T15:13:56.540Z,3.72
2022-12-28T15:15:17.431Z,4.15
2022-12-28T15:16:38.804Z,3.75
2022-12-28T15:17:59.614Z,3.97
2022-12-28T15:19:20.206Z,3.80
2022-12-28T15:20:46.804Z,3.67
2022-12-28T15:22:07.627Z,3.85
2022-12-28T15:23:28.450Z,4.45
2022-12-28T15:24:49.481Z,4.63
2022-12-28T15:26:12.933Z,4.07
2022-12-28T15:27:33.659Z,3.75
2022-12-28T15:28:54.316Z,4.20
2022-12-28T15:30:21.606Z,3.63
2022-12-28T15:31:45.321Z,4.28
2022-12-28T15:33:06.246Z,4.10
2022-12-28T15:34:26.424Z,3.70
2022-12-28T15:35:47.103Z,3.65
2022-12-28T15:37:07.617Z,3.55
2022-12-28T15:38:28.133Z,4.00
2022-12-28T15:39:49.284Z,4.20
2022-12-28T15:41:11.049Z,4.43
2022-12-28T15:42:35.069Z,4.07
2022-12-28T15:44:00.468Z,3.88
2022-12-28T15:45:20.954Z,4.63
2022-12-28T15:46:41.662Z,4.72
2022-12-28T15:48:02.131Z,4.83
2022-12-28T15:49:22.904Z,5.70
2022-12-28T15:50:43.685Z,4.22
2022-12-28T15:52:04.374Z,3.65
2022-12-28T15:53:24.702Z,4.18
2022-12-28T15:54:47.301Z,4.30
2022-12-28T15:56:21.527Z,3.58
2022-12-28T15:57:41.979Z,4.18
2022-12-28T15:59:04.548Z,3.53
2022-12-28T16:00:25.314Z,4.82
2022-12-28T16:01:46.285Z,3.45
2022-12-28T16:03:06.854Z,3.03
2022-12-28T16:04:27.526Z,4.73
2022-12-28T16:05:48.291Z,3.88
2022-12-28T16:07:08.801Z,3.63
2022-12-28T16:08:29.462Z,4.03
2022-12-28T16:09:50.226Z,3.58
2022-12-28T16:11:12.310Z,3.20
2022-12-28T16:12:33.938Z,3.70
2022-12-28T16:13:56.162Z,3.83
2022-12-28T16:15:16.862Z,3.90
2022-12-28T16:16:38.723Z,3.65
2022-12-28T16:17:59.322Z,3.20
2022-12-28T16:19:20.385Z,3.53
2022-12-28T16:20:40.720Z,3.67
2022-12-28T16:22:01.489Z,4.05
2022-12-28T16:23:22.232Z,3.45
2022-12-28T16:24:42.850Z,4.20
2022-12-28T16:26:03.613Z,4.03
2022-12-28T16:27:23.800Z,3.92
2022-12-28T16:28:45.925Z,3.63
2022-12-28T16:30:07.401Z,3.83
2022-12-28T16:31:29.244Z,3.20
2022-12-28T16:32:49.990Z,4.57
2022-12-28T16:34:13.173Z,3.72
2022-12-28T16:35:33.951Z,4.22
2022-12-28T16:36:54.747Z,3.97
2022-12-28T16:38:15.921Z,4.32
2022-12-28T16:39:36.284Z,4.47
2022-12-28T16:40:57.158Z,3.73
2022-12-28T16:42:17.681Z,4.68
2022-12-28T16:43:38.533Z,4.90
2022-12-28T16:45:00.513Z,4.78
2022-12-28T16:46:21.184Z,5.13
2022-12-28T16:47:44.957Z,5.68
2022-12-28T16:49:05.664Z,4.55
2022-12-28T16:50:26.512Z,5.18
2022-12-28T16:51:47.856Z,5.28
2022-12-28T16:53:08.756Z,5.45
2022-12-28T16:54:29.123Z,4.72
2022-12-28T16:55:49.874Z,5.13
2022-12-28T16:57:10.750Z,4.90
2022-12-28T16:58:31.524Z,4.45
2022-12-28T16:59:52.139Z,5.15
2022-12-28T17:01:13.944Z,5.38
2022-12-28T17:02:34.683Z,5.57
2022-12-28T17:04:01.691Z,5.43
2022-12-28T17:05:24.596Z,5.13
2022-12-28T17:06:45.465Z,4.43
2022-12-28T17:08:06.104Z,6.25
2022-12-28T17:09:26.874Z,5.82
2022-12-28T17:10:47.402Z,7.05
2022-12-28T17:12:07.685Z,6.13
2022-12-28T17:13:28.254Z,6.30
2022-12-28T17:14:48.879Z,6.28
2022-12-28T17:16:09.557Z,5.53
2022-12-28T17:17:31.071Z,5.97
2022-12-28T17:18:51.721Z,6.65
2022-12-28T17:20:12.128Z,7.05
2022-12-28T17:21:33.142Z,6.85
2022-12-28T17:22:53.897Z,6.88
2022-12-28T17:24:14.527Z,5.97
2022-12-28T17:25:36.040Z,6.80
2022-12-28T17:26:58.251Z,6.78
2022-12-28T17:28:22.565Z,6.00
2022-12-28T17:29:43.273Z,6.03
2022-12-28T17:31:06.424Z,6.78
2022-12-28T17:32:27.416Z,7.05
2022-12-28T17:33:51.301Z,6.03
2022-12-28T17:35:12.073Z,6.07
2022-12-28T17:36:32.594Z,6.20
2022-12-28T17:37:53.257Z,6.55
2022-12-28T17:39:13.610Z,5.70
2022-12-28T17:40:34.284Z,6.40
2022-12-28T17:41:55.094Z,6.80
2022-12-28T17:43:15.687Z,6.25
2022-12-28T17:44:36.309Z,6.00
2022-12-28T17:45:56.977Z,6.30
2022-12-28T17:47:17.502Z,6.30
2022-12-28T17:48:37.961Z,5.82
2022-12-28T17:49:59.845Z,5.85
2022-12-28T17:51:20.615Z,6.28
2022-12-28T17:52:41.045Z,6.25
2022-12-28T17:54:01.774Z,7.40
2022-12-28T17:55:22.236Z,6.60
2022-12-28T17:56:43.842Z,5.57
2022-12-28T17:58:04.519Z,7.28
2022-12-28T17:59:25.254Z,6.72
2022-12-28T18:00:45.436Z,7.50
2022-12-28T18:02:06.297Z,6.53
2022-12-28T18:03:33.268Z,6.68
2022-12-28T18:04:54.365Z,6.88
2022-12-28T18:06:16.394Z,6.32
2022-12-28T18:07:36.701Z,6.95
2022-12-28T18:08:57.326Z,7.70
2022-12-28T18:10:18.047Z,8.35
2022-12-28T18:11:38.606Z,6.68
2022-12-28T18:12:59.396Z,6.93
2022-12-28T18:14:20.024Z,7.63
2022-12-28T18:15:40.621Z,7.78
2022-12-28T18:17:01.520Z,8.20
2022-12-28T18:18:22.175Z,8.25
2022-12-28T18:19:42.624Z,7.67
2022-12-28T18:21:04.944Z,9.00
2022-12-28T18:22:26.914Z,8.30
2022-12-28T18:23:47.799Z,7.13
2022-12-28T18:25:09.014Z,8.93
2022-12-28T18:26:29.316Z,10.20
2022-12-28T18:27:49.872Z,8.73
2022-12-28T18:29:10.086Z,8.65
2022-12-28T18:30:30.759Z,9.93
2022-12-28T18:31:51.501Z,8.75
2022-12-28T18:33:11.975Z,10.15
2022-12-28T18:34:32.251Z,9.30
2022-12-28T18:35:52.994Z,9.02
2022-12-28T18:37:13.669Z,8.20
2022-12-28T18:38:38.143Z,8.87
2022-12-28T18:39:58.734Z,8.55
2022-12-28T18:41:19.975Z,9.18
2022-12-28T18:42:40.300Z,9.48
2022-12-28T18:44:00.746Z,9.38
2022-12-28T18:45:21.207Z,8.80
2022-12-28T18:46:41.896Z,8.93
2022-12-28T18:48:02.437Z,8.67
2022-12-28T18:49:23.016Z,9.07
2022-12-28T18:50:52.806Z,9.48
2022-12-28T18:52:13.474Z,9.07